Time;durP1;ratioP1;P1;durP2;ratioP2;P2;SDS_P1;SDS_P2;PMS_P1;PMS_P2;Temp;Humidity;BMP_temperature;BMP_pressure;BME280_temperature;BME280_humidity;BME280_pressure;Samples;Min_cycle;Max_cycle;Signal;HPM_P1;HPM_P2
2021/10/24 00:00:48;;;;;;;7.33;2.20;;;;;;;;;;10376640;28;20113;-84
2021/10/24 00:05:48;;;;;;;9.70;2.20;;;;;;;;;;10376902;28;20034;-84
2021/10/24 00:10:49;;;;;;;4.38;2.38;;;;;;;;;;10375280;28;20064;-84
2021/10/24 00:15:49;;;;;;;10.43;2.47;;;;;;;;;;10379930;28;20052;-84
2021/10/24 00:20:50;;;;;;;4.90;2.20;;;;;;;;;;10359635;28;20041;-85
2021/10/24 00:25:51;;;;;;;5.65;1.95;;;;;;;;;;10368137;28;20470;-83
2021/10/24 00:30:52;;;;;;;6.10;2.50;;;;;;;;;;10394324;28;20026;-84
2021/10/24 00:35:52;;;;;;;6.45;2.03;;;;;;;;;;10376080;28;20121;-84
2021/10/24 00:40:53;;;;;;;4.77;1.80;;;;;;;;;;10375368;28;20061;-84
2021/10/24 00:45:53;;;;;;;5.43;2.13;;;;;;;;;;10366107;28;20851;-84
2021/10/24 00:50:54;;;;;;;2.93;1.77;;;;;;;;;;10373917;28;20452;-84
2021/10/24 00:55:54;;;;;;;4.93;1.95;;;;;;;;;;10374356;28;20030;-81
2021/10/24 01:00:55;;;;;;;6.00;2.17;;;;;;;;;;10357973;28;20030;-84
2021/10/24 01:05:59;;;;;;;3.88;2.00;;;;;;;;;;10366536;28;20144;-86
2021/10/24 01:11:00;;;;;;;5.00;2.30;;;;;;;;;;10382444;28;20021;-88
2021/10/24 01:16:15;;;;;;;8.83;2.07;;;;;;;;;;10386624;28;20045;-91
2021/10/24 01:21:17;;;;;;;2.47;1.77;;;;;;;;;;10384755;28;20539;-92
2021/10/24 01:26:17;;;;;;;12.68;2.47;;;;;;;;;;10382630;28;20030;-84
2021/10/24 01:31:17;;;;;;;3.60;1.87;;;;;;;;;;10363377;28;20030;-84
2021/10/24 01:36:18;;;;;;;3.00;1.60;;;;;;;;;;10380570;28;20467;-84
2021/10/24 01:41:20;;;;;;;4.90;1.80;;;;;;;;;;10366790;28;20542;-84
2021/10/24 01:46:20;;;;;;;5.00;1.92;;;;;;;;;;10379853;28;20472;-83
2021/10/24 01:51:39;;;;;;;6.03;1.85;;;;;;;;;;10381518;28;20452;-83
2021/10/24 01:57:02;;;;;;;10.30;1.90;;;;;;;;;;10381118;28;20495;-83
2021/10/24 02:02:03;;;;;;;4.50;1.58;;;;;;;;;;10381955;28;20036;-83
2021/10/24 02:07:03;;;;;;;3.63;2.00;;;;;;;;;;10386413;28;20121;-83
2021/10/24 02:12:04;;;;;;;2.37;1.60;;;;;;;;;;10389343;28;20464;-83
2021/10/24 02:17:04;;;;;;;6.43;2.03;;;;;;;;;;10381635;28;20577;-83
2021/10/24 02:22:05;;;;;;;4.63;1.63;;;;;;;;;;10378424;28;20029;-84
2021/10/24 02:27:05;;;;;;;7.75;2.13;;;;;;;;;;10378356;28;20452;-84
2021/10/24 02:32:06;;;;;;;7.18;1.70;;;;;;;;;;10390227;28;20113;-85
2021/10/24 02:37:07;;;;;;;6.55;1.55;;;;;;;;;;10387607;28;20471;-85
2021/10/24 02:42:08;;;;;;;2.55;1.70;;;;;;;;;;10411990;28;20045;-85
2021/10/24 02:47:08;;;;;;;2.85;2.00;;;;;;;;;;10378829;28;20045;-83
2021/10/24 02:52:09;;;;;;;4.25;1.83;;;;;;;;;;10377881;28;20029;-83
2021/10/24 02:57:09;;;;;;;4.05;1.60;;;;;;;;;;10378336;28;20038;-83
2021/10/24 03:02:10;;;;;;;9.75;1.45;;;;;;;;;;10377679;28;20038;-83
2021/10/24 03:07:10;;;;;;;3.53;1.60;;;;;;;;;;10378823;28;20032;-83
2021/10/24 03:12:10;;;;;;;3.23;1.90;;;;;;;;;;10377251;28;20455;-83
2021/10/24 03:17:11;;;;;;;1.63;1.50;;;;;;;;;;10377342;28;20934;-86
2021/10/24 03:22:11;;;;;;;1.83;1.30;;;;;;;;;;10376858;28;20435;-83
2021/10/24 03:27:12;;;;;;;3.70;1.77;;;;;;;;;;10376072;28;20515;-84
2021/10/24 03:32:12;;;;;;;7.67;1.60;;;;;;;;;;10373098;28;20034;-84
2021/10/24 03:37:12;;;;;;;7.10;1.80;;;;;;;;;;10376665;28;20069;-85
2021/10/24 03:42:13;;;;;;;3.03;1.60;;;;;;;;;;10376040;28;20376;-86
2021/10/24 03:47:13;;;;;;;4.40;1.40;;;;;;;;;;10376268;28;20479;-85
2021/10/24 03:52:14;;;;;;;3.67;1.60;;;;;;;;;;10375990;28;20540;-85
2021/10/24 03:57:14;;;;;;;3.07;1.50;;;;;;;;;;10375622;28;20092;-85
2021/10/24 04:02:15;;;;;;;4.25;1.52;;;;;;;;;;10375350;28;20064;-83
2021/10/24 04:07:16;;;;;;;8.60;1.88;;;;;;;;;;10375119;28;20400;-82
2021/10/24 04:12:16;;;;;;;4.88;1.60;;;;;;;;;;10375030;28;20048;-83
2021/10/24 04:17:16;;;;;;;6.10;1.70;;;;;;;;;;10354451;28;20061;-84
2021/10/24 04:22:17;;;;;;;2.13;1.25;;;;;;;;;;10373395;28;20538;-84
2021/10/24 04:27:18;;;;;;;1.50;1.37;;;;;;;;;;10374487;28;20057;-84
2021/10/24 04:32:18;;;;;;;2.05;1.40;;;;;;;;;;10374368;28;20474;-85
2021/10/24 04:37:19;;;;;;;1.50;1.07;;;;;;;;;;10373666;28;20434;-85
2021/10/24 04:42:19;;;;;;;2.90;1.35;;;;;;;;;;10377397;28;20439;-85
2021/10/24 04:47:19;;;;;;;2.20;1.50;;;;;;;;;;10396529;28;20084;-87
2021/10/24 04:52:20;;;;;;;2.23;1.60;;;;;;;;;;10352673;28;20088;-83
2021/10/24 04:57:21;;;;;;;4.88;1.33;;;;;;;;;;10363639;28;20780;-84
2021/10/24 05:02:21;;;;;;;2.13;1.30;;;;;;;;;;10396233;28;20029;-84
2021/10/24 05:07:22;;;;;;;2.25;1.63;;;;;;;;;;10361064;28;20180;-84
2021/10/24 05:12:23;;;;;;;2.35;1.60;;;;;;;;;;10352307;28;20140;-85
2021/10/24 05:17:23;;;;;;;4.07;1.87;;;;;;;;;;10375521;28;20029;-84
2021/10/24 05:22:24;;;;;;;1.90;1.70;;;;;;;;;;10373353;28;20454;-83
2021/10/24 05:27:24;;;;;;;2.63;1.70;;;;;;;;;;10369474;28;20021;-81
2021/10/24 05:32:25;;;;;;;6.05;1.42;;;;;;;;;;10370729;28;20026;-84
2021/10/24 05:37:25;;;;;;;4.43;1.20;;;;;;;;;;10373056;28;20037;-83
2021/10/24 05:42:25;;;;;;;3.17;1.37;;;;;;;;;;10370788;28;20552;-82
2021/10/24 05:47:28;;;;;;;4.60;1.53;;;;;;;;;;10372453;28;20419;-82
2021/10/24 05:52:29;;;;;;;2.45;1.38;;;;;;;;;;10370237;28;20040;-84
2021/10/24 05:57:29;;;;;;;2.60;1.00;;;;;;;;;;10379250;28;20474;-83
2021/10/24 06:02:29;;;;;;;12.05;1.75;;;;;;;;;;10378911;28;20562;-85
2021/10/24 06:07:32;;;;;;;1.83;1.10;;;;;;;;;;10380251;28;20029;-85
2021/10/24 06:17:34;;;;;;;1.58;1.10;;;;;;;;;;10379122;28;20487;-83
2021/10/24 06:22:35;;;;;;;1.77;1.13;;;;;;;;;;10379197;28;20030;-83
2021/10/24 06:27:37;;;;;;;5.05;1.20;;;;;;;;;;10380032;28;20357;-83
2021/10/24 06:32:38;;;;;;;2.33;0.95;;;;;;;;;;10381148;28;20037;-82
2021/10/24 06:37:43;;;;;;;2.65;1.10;;;;;;;;;;10357081;28;20064;-82
2021/10/24 06:42:44;;;;;;;3.47;1.13;;;;;;;;;;10376534;28;20026;-82
2021/10/24 06:47:47;;;;;;;2.08;1.23;;;;;;;;;;10382909;28;20049;-82
2021/10/24 06:52:47;;;;;;;1.77;1.20;;;;;;;;;;10360494;28;20583;-82
2021/10/24 06:57:56;;;;;;;1.33;1.13;;;;;;;;;;10376277;28;20173;-82
2021/10/24 07:02:56;;;;;;;1.75;1.13;;;;;;;;;;10372924;28;20477;-82
2021/10/24 07:07:57;;;;;;;2.45;1.20;;;;;;;;;;10376353;28;20042;-85
2021/10/24 07:12:57;;;;;;;2.00;1.00;;;;;;;;;;10389431;28;20030;-81
2021/10/24 07:17:57;;;;;;;1.83;1.10;;;;;;;;;;10393458;28;20443;-84
2021/10/24 07:22:58;;;;;;;1.88;1.10;;;;;;;;;;10377131;28;20458;-84
2021/10/24 07:27:58;;;;;;;1.40;1.25;;;;;;;;;;10376723;28;20090;-85
2021/10/24 07:32:58;;;;;;;2.20;1.23;;;;;;;;;;10401745;28;20028;-84
2021/10/24 07:38:03;;;;;;;1.13;1.00;;;;;;;;;;10355352;28;20040;-81
2021/10/24 07:43:04;;;;;;;3.25;1.17;;;;;;;;;;10396797;23;20447;-84
2021/10/24 07:48:05;;;;;;;1.35;1.10;;;;;;;;;;10393935;28;20026;-84
2021/10/24 07:53:05;;;;;;;1.63;1.00;;;;;;;;;;10406233;28;20025;-83
2021/10/24 07:58:05;;;;;;;1.67;1.10;;;;;;;;;;10417023;28;20514;-83
2021/10/24 08:03:06;;;;;;;1.83;1.40;;;;;;;;;;10397988;28;20533;-82
2021/10/24 08:08:06;;;;;;;2.38;1.15;;;;;;;;;;10391741;28;20037;-82
2021/10/24 08:13:07;;;;;;;1.53;1.03;;;;;;;;;;10406171;28;20026;-82
2021/10/24 08:18:08;;;;;;;4.40;1.20;;;;;;;;;;10407548;28;20474;-82
2021/10/24 08:23:09;;;;;;;1.85;1.05;;;;;;;;;;10376397;28;20453;-83
2021/10/24 08:28:09;;;;;;;1.60;1.37;;;;;;;;;;10394065;28;20108;-84
2021/10/24 08:33:11;;;;;;;2.43;1.17;;;;;;;;;;10417134;28;20025;-85
2021/10/24 08:38:12;;;;;;;1.13;1.02;;;;;;;;;;10411217;28;20084;-85
2021/10/24 08:43:19;;;;;;;2.15;1.20;;;;;;;;;;10407276;28;20036;-84
2021/10/24 08:48:20;;;;;;;2.38;1.33;;;;;;;;;;10399119;28;20168;-85
2021/10/24 08:53:25;;;;;;;5.43;1.00;;;;;;;;;;10386134;28;20160;-84
2021/10/24 08:58:25;;;;;;;5.97;1.13;;;;;;;;;;10416182;28;20033;-89
2021/10/24 09:03:26;;;;;;;10.55;1.75;;;;;;;;;;10417370;28;20486;-89
2021/10/24 09:08:27;;;;;;;3.63;1.70;;;;;;;;;;10413676;28;20029;-87
2021/10/24 09:13:29;;;;;;;2.55;1.85;;;;;;;;;;10389028;28;20091;-87
2021/10/24 09:18:40;;;;;;;9.20;1.63;;;;;;;;;;10414272;28;20072;-87
2021/10/24 09:24:13;;;;;;;3.72;1.60;;;;;;;;;;10414170;28;20021;-87
2021/10/24 09:29:15;;;;;;;5.63;1.70;;;;;;;;;;10400023;28;20468;-87
2021/10/24 09:34:25;;;;;;;12.60;1.67;;;;;;;;;;10413723;28;20022;-89
2021/10/24 09:39:31;;;;;;;1.65;1.40;;;;;;;;;;10430576;28;20053;-84
2021/10/24 09:44:31;;;;;;;1.30;1.20;;;;;;;;;;10397905;28;20042;-83
2021/10/24 09:49:42;;;;;;;3.83;1.40;;;;;;;;;;10419140;28;20113;-82
2021/10/24 09:54:49;;;;;;;2.25;1.33;;;;;;;;;;10423518;28;20032;-84
2021/10/24 09:59:54;;;;;;;2.88;1.30;;;;;;;;;;10421747;28;20034;-84
2021/10/24 10:04:55;;;;;;;2.40;1.52;;;;;;;;;;10421240;28;20029;-85
2021/10/24 10:09:56;;;;;;;1.48;1.05;;;;;;;;;;10415257;28;20116;-84
2021/10/24 10:15:00;;;;;;;5.55;1.77;;;;;;;;;;10387011;28;20033;-82
2021/10/24 10:20:24;;;;;;;1.83;1.30;;;;;;;;;;10394413;28;20379;-82
2021/10/24 10:25:28;;;;;;;3.05;1.45;;;;;;;;;;10414213;28;20056;-82
2021/10/24 10:30:35;;;;;;;2.45;1.20;;;;;;;;;;10395450;28;20463;-84
2021/10/24 10:35:52;;;;;;;1.85;1.25;;;;;;;;;;10412541;28;20079;-85
2021/10/24 10:40:56;;;;;;;1.10;1.00;;;;;;;;;;10425056;28;20033;-82
2021/10/24 10:46:01;;;;;;;4.25;1.40;;;;;;;;;;10403891;28;20092;-84
2021/10/24 10:51:24;;;;;;;4.30;1.30;;;;;;;;;;10431229;28;20448;-80
2021/10/24 10:56:26;;;;;;;1.88;1.30;;;;;;;;;;10390180;28;20128;-81
2021/10/24 11:01:33;;;;;;;2.22;1.23;;;;;;;;;;10406155;28;20037;-81
2021/10/24 11:06:37;;;;;;;1.60;1.23;;;;;;;;;;10415096;28;20557;-88
2021/10/24 11:11:47;;;;;;;2.28;1.40;;;;;;;;;;10416759;28;20038;-86
2021/10/24 11:16:50;;;;;;;2.03;1.27;;;;;;;;;;10415991;28;20029;-82
2021/10/24 11:21:50;;;;;;;7.05;2.55;;;;;;;;;;10393086;28;20032;-82
2021/10/24 11:26:57;;;;;;;9.02;1.95;;;;;;;;;;10430658;28;20349;-82
2021/10/24 11:32:25;;;;;;;8.07;2.00;;;;;;;;;;10419597;28;20022;-81
2021/10/24 11:37:53;;;;;;;8.25;2.67;;;;;;;;;;10397127;28;20033;-82
2021/10/24 11:43:06;;;;;;;2.67;1.42;;;;;;;;;;10400549;28;20094;-82
2021/10/24 11:48:32;;;;;;;4.15;1.77;;;;;;;;;;10400088;28;20108;-83
2021/10/24 11:53:47;;;;;;;3.08;1.60;;;;;;;;;;10392103;28;20069;-82
2021/10/24 11:59:04;;;;;;;3.53;1.42;;;;;;;;;;10410647;28;20040;-82
2021/10/24 12:04:10;;;;;;;6.78;1.70;;;;;;;;;;10412148;28;20041;-82
2021/10/24 12:09:13;;;;;;;7.10;1.55;;;;;;;;;;10419153;28;20368;-82
2021/10/24 12:14:14;;;;;;;3.35;1.50;;;;;;;;;;10404126;28;20452;-82
2021/10/24 12:19:16;;;;;;;3.92;1.60;;;;;;;;;;10408250;28;20036;-82
2021/10/24 12:24:20;;;;;;;2.60;1.48;;;;;;;;;;10408780;28;20468;-83
2021/10/24 12:29:21;;;;;;;2.47;1.52;;;;;;;;;;10405372;28;20033;-82
2021/10/24 12:34:22;;;;;;;2.03;1.23;;;;;;;;;;10407634;28;20438;-80
2021/10/24 12:39:24;;;;;;;1.90;1.30;;;;;;;;;;10418070;28;20785;-80
2021/10/24 12:44:25;;;;;;;3.85;1.50;;;;;;;;;;10400531;28;20041;-84
2021/10/24 12:49:28;;;;;;;8.50;1.92;;;;;;;;;;10411379;28;20038;-83
2021/10/24 12:54:31;;;;;;;5.32;1.27;;;;;;;;;;10403700;28;20030;-82
2021/10/24 12:59:32;;;;;;;5.22;1.70;;;;;;;;;;10395275;28;20038;-82
2021/10/24 13:04:32;;;;;;;4.40;1.50;;;;;;;;;;10408281;28;20048;-81
2021/10/24 13:09:33;;;;;;;2.73;1.63;;;;;;;;;;10399676;28;20124;-82
2021/10/24 13:14:34;;;;;;;20.25;1.70;;;;;;;;;;10386313;28;20038;-82
2021/10/24 13:19:36;;;;;;;5.85;1.77;;;;;;;;;;10405136;28;20030;-83
2021/10/24 13:24:38;;;;;;;3.17;1.65;;;;;;;;;;10397946;28;20042;-82
2021/10/24 13:29:42;;;;;;;5.85;1.55;;;;;;;;;;10409823;28;20033;-84
2021/10/24 13:34:44;;;;;;;12.68;2.40;;;;;;;;;;10383087;28;20045;-86
2021/10/24 13:39:45;;;;;;;2.40;1.63;;;;;;;;;;10391023;28;20034;-86
2021/10/24 13:44:47;;;;;;;8.63;1.92;;;;;;;;;;10396991;28;20622;-86
2021/10/24 13:49:47;;;;;;;9.27;1.85;;;;;;;;;;10411670;28;20033;-85
2021/10/24 13:54:48;;;;;;;12.33;1.57;;;;;;;;;;10411989;28;20451;-85
2021/10/24 13:59:49;;;;;;;2.90;1.60;;;;;;;;;;10394250;28;20112;-82
2021/10/24 14:04:49;;;;;;;6.47;1.90;;;;;;;;;;10409818;28;20030;-82
2021/10/24 14:09:50;;;;;;;5.00;1.70;;;;;;;;;;10392772;28;20037;-83
2021/10/24 14:14:51;;;;;;;4.90;1.40;;;;;;;;;;10397145;28;20026;-82
2021/10/24 14:19:52;;;;;;;5.00;1.35;;;;;;;;;;10395716;28;20057;-82
2021/10/24 14:24:52;;;;;;;4.68;1.58;;;;;;;;;;10401976;28;20045;-82
2021/10/24 14:29:53;;;;;;;2.75;1.40;;;;;;;;;;10406520;28;20037;-83
2021/10/24 14:34:56;;;;;;;4.07;1.60;;;;;;;;;;10396219;28;20033;-82
2021/10/24 14:39:57;;;;;;;2.83;1.50;;;;;;;;;;10399720;28;20444;-82
2021/10/24 14:44:57;;;;;;;4.43;1.60;;;;;;;;;;10422284;28;20073;-82
2021/10/24 14:50:00;;;;;;;4.93;1.93;;;;;;;;;;10397371;28;20172;-82
2021/10/24 14:55:00;;;;;;;2.22;1.48;;;;;;;;;;10411584;28;20510;-82
2021/10/24 15:00:01;;;;;;;3.47;1.40;;;;;;;;;;10416479;28;20487;-82
2021/10/24 15:05:01;;;;;;;2.08;1.23;;;;;;;;;;10407737;28;20029;-83
2021/10/24 15:10:03;;;;;;;2.75;1.40;;;;;;;;;;10403844;28;20029;-82
2021/10/24 15:15:04;;;;;;;3.90;1.67;;;;;;;;;;10420600;28;20356;-83
2021/10/24 15:25:25;;;;;;;10.85;1.42;;;;;;;;;;10404439;28;20057;-83
2021/10/24 15:30:26;;;;;;;4.60;1.58;;;;;;;;;;10383203;28;20064;-83
2021/10/24 15:35:26;;;;;;;4.20;1.48;;;;;;;;;;10404522;28;20030;-83
2021/10/24 15:40:27;;;;;;;2.28;1.65;;;;;;;;;;10412609;28;20083;-82
2021/10/24 15:45:27;;;;;;;2.75;1.33;;;;;;;;;;10395907;28;20041;-82
2021/10/24 15:50:28;;;;;;;2.40;1.38;;;;;;;;;;10398188;28;20029;-83
2021/10/24 15:55:30;;;;;;;3.88;1.33;;;;;;;;;;10397588;28;20376;-83
2021/10/24 16:00:30;;;;;;;4.38;1.63;;;;;;;;;;10393760;28;20033;-82
2021/10/24 16:05:31;;;;;;;2.93;1.30;;;;;;;;;;10403464;28;20088;-82
2021/10/24 16:10:34;;;;;;;1.92;1.20;;;;;;;;;;10398934;28;20763;-81
2021/10/24 16:15:34;;;;;;;3.40;1.45;;;;;;;;;;10398451;28;20102;-81
2021/10/24 16:20:35;;;;;;;4.93;1.30;;;;;;;;;;10375035;28;20120;-81
2021/10/24 16:25:35;;;;;;;4.13;1.10;;;;;;;;;;10403459;28;20149;-81
2021/10/24 16:30:36;;;;;;;4.65;1.67;;;;;;;;;;10403495;28;20030;-82
2021/10/24 16:35:36;;;;;;;6.00;1.70;;;;;;;;;;10401495;28;20030;-82
2021/10/24 16:40:37;;;;;;;7.07;1.63;;;;;;;;;;10401565;28;20499;-82
2021/10/24 16:45:37;;;;;;;3.92;1.88;;;;;;;;;;10398645;28;20494;-81
2021/10/24 16:50:38;;;;;;;1.70;1.20;;;;;;;;;;10403443;28;20050;-82
2021/10/24 16:55:38;;;;;;;2.65;1.10;;;;;;;;;;10401223;28;20033;-82
2021/10/24 17:00:39;;;;;;;3.47;1.63;;;;;;;;;;10394210;28;20041;-88
2021/10/24 17:05:40;;;;;;;1.63;1.20;;;;;;;;;;10388936;28;20037;-81
2021/10/24 17:10:40;;;;;;;6.55;1.52;;;;;;;;;;10401638;28;20475;-82
2021/10/24 17:15:41;;;;;;;6.65;1.60;;;;;;;;;;10400445;28;20026;-81
2021/10/24 17:20:43;;;;;;;5.38;1.40;;;;;;;;;;10411671;28;20361;-81
2021/10/24 17:25:43;;;;;;;5.63;1.52;;;;;;;;;;10378690;28;20476;-85
2021/10/24 17:30:45;;;;;;;5.22;1.70;;;;;;;;;;10394683;28;20047;-81
2021/10/24 17:35:46;;;;;;;4.80;1.40;;;;;;;;;;10396928;28;20037;-82
2021/10/24 17:40:47;;;;;;;8.65;1.98;;;;;;;;;;10387292;28;20038;-84
2021/10/24 17:45:47;;;;;;;27.85;4.13;;;;;;;;;;10401851;28;20191;-84
2021/10/24 17:50:47;;;;;;;10.83;3.17;;;;;;;;;;10401835;28;20471;-84
2021/10/24 17:55:49;;;;;;;10.20;2.55;;;;;;;;;;10391716;28;20516;-85
2021/10/24 18:00:49;;;;;;;9.73;2.55;;;;;;;;;;10404271;28;20037;-84
2021/10/24 18:05:49;;;;;;;6.37;2.43;;;;;;;;;;10411470;28;20456;-84
2021/10/24 18:10:50;;;;;;;6.23;2.67;;;;;;;;;;10411238;28;20451;-83
2021/10/24 18:15:51;;;;;;;6.78;2.67;;;;;;;;;;10414425;28;20980;-84
2021/10/24 18:20:52;;;;;;;13.07;2.67;;;;;;;;;;10405938;28;20040;-84
2021/10/24 18:25:52;;;;;;;7.93;2.55;;;;;;;;;;10402582;28;20470;-84
2021/10/24 18:30:53;;;;;;;12.77;2.97;;;;;;;;;;10407050;28;20091;-84
2021/10/24 18:35:55;;;;;;;8.48;2.63;;;;;;;;;;10395806;28;20037;-80
2021/10/24 18:40:55;;;;;;;9.30;2.50;;;;;;;;;;10399528;28;20025;-82
2021/10/24 18:45:56;;;;;;;6.03;2.20;;;;;;;;;;10394217;28;20124;-82
2021/10/24 18:50:57;;;;;;;8.50;2.50;;;;;;;;;;10404916;28;20345;-82
2021/10/24 18:55:58;;;;;;;5.90;2.42;;;;;;;;;;10384372;28;20030;-82
2021/10/24 19:01:03;;;;;;;5.28;2.22;;;;;;;;;;10401708;28;20124;-82
2021/10/24 19:06:03;;;;;;;9.75;3.20;;;;;;;;;;10406873;28;20034;-82
2021/10/24 19:11:04;;;;;;;5.88;2.33;;;;;;;;;;10404946;28;20583;-84
2021/10/24 19:16:04;;;;;;;8.70;2.53;;;;;;;;;;10389322;28;20038;-81
2021/10/24 19:21:05;;;;;;;7.85;2.72;;;;;;;;;;10389000;28;20455;-84
2021/10/24 19:26:05;;;;;;;9.75;2.30;;;;;;;;;;10412005;28;20132;-84
2021/10/24 19:31:07;;;;;;;5.33;2.30;;;;;;;;;;10392412;28;20108;-84
2021/10/24 19:36:08;;;;;;;7.93;2.50;;;;;;;;;;10402371;28;20107;-83
2021/10/24 19:41:08;;;;;;;7.65;2.92;;;;;;;;;;10371351;28;20596;-85
2021/10/24 19:46:09;;;;;;;6.50;2.57;;;;;;;;;;10455677;23;20057;-96
2021/10/24 19:51:13;;;;;;;7.55;2.88;;;;;;;;;;10375338;28;20471;-96
2021/10/24 19:56:31;;;;;;;6.68;2.58;;;;;;;;;;10370234;28;20084;-94
2021/10/24 20:01:33;;;;;;;6.23;2.67;;;;;;;;;;10394444;28;20044;-94
2021/10/24 20:06:34;;;;;;;5.50;2.60;;;;;;;;;;10374505;28;20041;-93
2021/10/24 20:11:34;;;;;;;8.88;3.20;;;;;;;;;;10374241;28;20460;-96
2021/10/24 20:16:35;;;;;;;11.15;3.10;;;;;;;;;;10374018;28;20044;-96
2021/10/24 20:21:36;;;;;;;14.25;3.28;;;;;;;;;;10365456;28;20041;-95
2021/10/24 20:26:36;;;;;;;6.10;3.60;;;;;;;;;;10397602;28;20128;-94
2021/10/24 20:31:37;;;;;;;12.75;3.60;;;;;;;;;;10374021;28;20033;-96
2021/10/24 20:36:38;;;;;;;7.57;3.00;;;;;;;;;;10384823;28;20033;-95
2021/10/24 20:41:38;;;;;;;4.95;3.10;;;;;;;;;;10394494;28;20025;-93
2021/10/24 20:46:40;;;;;;;5.72;3.17;;;;;;;;;;10377627;28;20419;-94
2021/10/24 20:51:42;;;;;;;7.38;3.17;;;;;;;;;;10386191;28;20053;-96
2021/10/24 20:56:44;;;;;;;7.32;3.30;;;;;;;;;;10405083;28;20029;-96
2021/10/24 21:01:45;;;;;;;8.65;3.33;;;;;;;;;;10383682;28;20037;-95
2021/10/24 21:06:45;;;;;;;9.85;3.60;;;;;;;;;;10400770;28;20040;-95
2021/10/24 21:11:46;;;;;;;6.30;3.08;;;;;;;;;;10421507;28;20075;-93
2021/10/24 21:16:47;;;;;;;8.05;3.17;;;;;;;;;;10392766;28;20033;-94
2021/10/24 21:21:47;;;;;;;7.72;2.92;;;;;;;;;;10366552;28;20087;-86
2021/10/24 21:26:48;;;;;;;10.68;3.33;;;;;;;;;;10399626;28;20026;-85
2021/10/24 21:31:48;;;;;;;9.88;3.90;;;;;;;;;;10407595;28;20541;-87
2021/10/24 21:36:48;;;;;;;6.70;3.40;;;;;;;;;;10383553;28;20033;-86
2021/10/24 21:41:49;;;;;;;7.33;3.60;;;;;;;;;;10394465;28;20109;-86
2021/10/24 21:46:49;;;;;;;6.47;2.93;;;;;;;;;;10405950;28;20980;-87
2021/10/24 21:51:50;;;;;;;5.88;3.03;;;;;;;;;;10373516;28;20486;-86
2021/10/24 21:56:50;;;;;;;8.32;2.65;;;;;;;;;;10390173;28;20022;-86
2021/10/24 22:01:50;;;;;;;5.93;3.13;;;;;;;;;;10418780;28;20041;-87
2021/10/24 22:06:51;;;;;;;11.50;3.10;;;;;;;;;;10402739;28;20435;-87
2021/10/24 22:11:52;;;;;;;10.80;3.17;;;;;;;;;;10400152;28;20557;-87
2021/10/24 22:16:53;;;;;;;8.13;3.25;;;;;;;;;;10393112;28;20522;-84
2021/10/24 22:21:54;;;;;;;9.05;2.90;;;;;;;;;;10361508;28;20068;-88
